Main page
METAR-TAF:

METAR-TAF

Airports :

Altenburg, Germany

Leipzig–Altenburg Airport

latitude: 50-58N, longitude: 012-30E, elevation: 195 m

Current weather observation

The report was made 8 hours and 39 minutes ago, at 17:20 UTC
Wind 2 kt from the North
Temperature 13°C
Humidity 94%
Pressure 1021 hPa
Visibility 10 km or more
Few clouds at a height of 2800 ft
Scattered clouds at a height of 7000 ft
Broken clouds at a height of 9000 ft
patches of fog

METAR: EDAC 251720Z 36002KT 9999 BCFG FEW028 SCT070 BKN090 13/12 Q1021

Time: 03:59 (01:59 UTC)

Forecast

The report was made 11 hours and 59 minutes ago, at 14:00 UTC
Forecast valid from 25 at 15 UTC to 25 at 24 UTC
Wind 5 kt from the Northeast
Visibility 10 km or more
Broken clouds at a height of 3000 ft
Temporary
from 25 at 15 UTC to 25 at 21 UTC
Broken clouds at a height of 700 ft
Becoming
from 25 at 15 UTC to 25 at 18 UTC
Wind 5 kt from the East/Southeast

TAF: EDAC 251400Z 2515/2524 04005KT 9999 BKN030 TEMPO 2515/2521 BKN007 BECMG 2515/2518 12005KT

Weather observations and forecasts of more than 4000 airports (METAR and TAF reports).

The available stations are represented by yellow and red dots on the map.

Hover mouse over dot to see the name of the station.

Then click to see weather observations and forecasts.

To change the map : click on the green buttons with a black cross to zoom in, on the green button with a dash to zoom out, or on the green arrows for adjacent maps.


METAR-TAF: